createdAt,value
2022-11-11T00:00:04.000Z,19.10
2022-11-11T00:02:50.997Z,20.63
2022-11-11T00:05:37.815Z,21.33
2022-11-11T00:08:25.884Z,20.63
2022-11-11T00:11:14.538Z,17.10
2022-11-11T00:14:01.242Z,17.67
2022-11-11T00:17:05.370Z,17.58
2022-11-11T00:20:09.406Z,17.15
2022-11-11T00:23:22.128Z,17.50
2022-11-11T00:26:38.040Z,17.98
2022-11-11T00:29:18.301Z,17.27
2022-11-11T00:32:23.029Z,16.27
2022-11-11T00:35:27.864Z,15.98
2022-11-11T00:38:36.490Z,16.40
2022-11-11T00:41:25.674Z,17.00
2022-11-11T00:44:12.779Z,15.63
2022-11-11T00:47:17.136Z,15.23
2022-11-11T00:50:21.935Z,14.05
2022-11-11T00:53:12.226Z,15.13
2022-11-11T00:55:59.394Z,16.10
2022-11-11T00:58:47.643Z,16.02
2022-11-11T01:01:35.270Z,15.45
2022-11-11T01:04:21.727Z,15.45
2022-11-11T01:07:08.364Z,15.70
2022-11-11T01:09:55.053Z,15.15
2022-11-11T01:12:41.642Z,16.98
2022-11-11T01:15:29.728Z,17.90
2022-11-11T01:18:20.344Z,18.10
2022-11-11T01:21:09.531Z,17.95
2022-11-11T01:23:56.178Z,17.65
2022-11-11T01:26:43.222Z,18.42
2022-11-11T01:29:30.206Z,17.23
2022-11-11T01:32:18.103Z,17.45
2022-11-11T01:35:05.164Z,17.30
2022-11-11T01:37:51.615Z,17.65
2022-11-11T01:40:43.247Z,15.93
2022-11-11T01:43:30.330Z,16.83
2022-11-11T01:46:25.106Z,15.73
2022-11-11T01:49:24.336Z,17.50
2022-11-11T01:52:15.823Z,18.17
2022-11-11T01:55:07.808Z,17.92
2022-11-11T01:57:59.039Z,17.10
2022-11-11T02:00:45.813Z,17.08
2022-11-11T02:03:36.978Z,16.35
2022-11-11T02:06:25.107Z,15.05
2022-11-11T02:09:12.041Z,14.45
2022-11-11T02:12:18.738Z,14.55
2022-11-11T02:15:07.072Z,14.80
2022-11-11T02:17:53.882Z,13.52
2022-11-11T02:20:44.191Z,13.45
2022-11-11T02:23:35.201Z,14.05
2022-11-11T02:26:24.086Z,15.30
2022-11-11T02:29:14.895Z,14.88
2022-11-11T02:32:01.688Z,15.00
2022-11-11T02:34:48.638Z,15.02
2022-11-11T02:37:35.348Z,16.50
2022-11-11T02:40:26.193Z,15.07
2022-11-11T02:43:14.435Z,15.48
2022-11-11T02:46:02.318Z,15.10
2022-11-11T02:48:49.193Z,14.88
2022-11-11T02:51:36.002Z,16.13
2022-11-11T02:54:22.571Z,16.33
2022-11-11T02:57:09.413Z,15.85
2022-11-11T02:59:59.735Z,15.18
2022-11-11T03:02:46.741Z,14.82
2022-11-11T03:05:33.433Z,16.38
2022-11-11T03:08:20.391Z,15.25
2022-11-11T03:11:07.183Z,15.82
2022-11-11T03:13:54.757Z,13.88
2022-11-11T03:17:00.482Z,13.48
2022-11-11T03:19:47.283Z,13.85
2022-11-11T03:25:40.648Z,14.68
2022-11-11T03:28:27.424Z,14.50
2022-11-11T03:31:14.024Z,18.35
2022-11-11T03:34:18.372Z,16.23
2022-11-11T03:37:24.069Z,15.67
2022-11-11T03:40:12.015Z,14.40
2022-11-11T03:43:04.213Z,17.38
2022-11-11T03:45:52.054Z,16.55
2022-11-11T03:48:38.796Z,16.08
2022-11-11T03:51:26.787Z,15.82
2022-11-11T03:54:13.546Z,15.85
2022-11-11T03:57:14.262Z,16.60
2022-11-11T04:00:00.711Z,18.02
2022-11-11T04:03:05.051Z,17.08
2022-11-11T04:06:09.554Z,15.27
2022-11-11T04:09:14.681Z,16.50
2022-11-11T04:12:01.349Z,16.42
2022-11-11T04:15:05.394Z,17.38
2022-11-11T04:17:52.045Z,16.83
2022-11-11T04:20:55.898Z,16.98
2022-11-11T04:23:42.470Z,16.63
2022-11-11T04:26:29.505Z,14.30
2022-11-11T04:29:31.414Z,14.70
2022-11-11T04:32:39.299Z,14.35
2022-11-11T04:35:26.843Z,13.73
2022-11-11T04:38:41.813Z,15.15
2022-11-11T04:41:40.787Z,14.77
2022-11-11T04:44:54.103Z,13.95
2022-11-11T04:47:53.243Z,15.52
2022-11-11T04:50:42.337Z,15.10
2022-11-11T04:53:30.528Z,15.25
2022-11-11T04:56:35.036Z,15.50
2022-11-11T04:59:21.601Z,20.25
2022-11-11T05:02:27.127Z,14.38
2022-11-11T05:05:14.017Z,14.10
2022-11-11T05:08:18.410Z,14.73
2022-11-11T05:11:05.313Z,14.15
2022-11-11T05:14:09.587Z,14.32
2022-11-11T05:17:15.476Z,15.25
2022-11-11T05:20:20.963Z,16.83
2022-11-11T05:23:07.588Z,16.92
2022-11-11T05:25:53.072Z,15.32
2022-11-11T05:28:39.510Z,15.90
2022-11-11T05:31:26.007Z,24.63
2022-11-11T05:34:12.748Z,18.52
2022-11-11T05:37:00.638Z,16.25
2022-11-11T05:39:47.592Z,12.88
2022-11-11T05:42:34.279Z,13.73
2022-11-11T05:45:20.904Z,12.88
2022-11-11T05:48:07.604Z,11.23
2022-11-11T05:50:54.231Z,10.88
2022-11-11T05:53:42.534Z,11.52
2022-11-11T05:56:28.975Z,9.35
2022-11-11T05:59:15.738Z,10.25
2022-11-11T06:02:02.750Z,10.13
2022-11-11T06:04:49.721Z,12.70
2022-11-11T06:07:39.499Z,13.52
2022-11-11T06:10:33.751Z,12.23
2022-11-11T06:13:20.222Z,11.45
2022-11-11T06:16:07.937Z,12.10
2022-11-11T06:18:54.696Z,11.32
2022-11-11T06:22:01.193Z,10.73
2022-11-11T06:25:08.327Z,10.98
2022-11-11T06:27:56.539Z,11.18
2022-11-11T06:30:50.124Z,11.57
2022-11-11T06:33:38.820Z,9.40
2022-11-11T06:36:25.674Z,11.02
2022-11-11T06:39:12.299Z,12.45
2022-11-11T06:41:59.544Z,11.57
2022-11-11T06:44:47.889Z,12.13
2022-11-11T06:47:34.444Z,11.60
2022-11-11T06:50:21.732Z,13.05
2022-11-11T06:53:09.227Z,15.20
2022-11-11T06:55:56.182Z,15.13
2022-11-11T06:58:43.000Z,55.17
2022-11-11T07:01:31.507Z,51.47
2022-11-11T07:04:18.433Z,44.35
2022-11-11T07:07:05.210Z,29.20
2022-11-11T07:09:52.081Z,28.10
2022-11-11T07:12:41.948Z,26.90
2022-11-11T07:15:28.617Z,16.33
2022-11-11T07:18:16.589Z,16.60
2022-11-11T07:21:03.081Z,23.00
2022-11-11T07:23:49.593Z,18.08
2022-11-11T07:26:36.413Z,20.98
2022-11-11T07:29:23.252Z,23.02
2022-11-11T07:32:10.087Z,20.80
2022-11-11T07:34:58.199Z,32.63
2022-11-11T07:37:45.376Z,15.25
2022-11-11T07:40:31.920Z,14.25
2022-11-11T07:43:20.089Z,14.48
2022-11-11T07:46:06.957Z,19.17
2022-11-11T07:48:54.006Z,29.58
2022-11-11T07:51:41.868Z,11.18
2022-11-11T07:54:29.345Z,8.63
2022-11-11T07:57:15.652Z,8.75
2022-11-11T08:00:02.468Z,8.30
2022-11-11T08:02:49.193Z,7.68
2022-11-11T08:05:35.860Z,7.43
2022-11-11T08:08:26.986Z,7.20
2022-11-11T08:11:14.131Z,7.10
2022-11-11T08:13:59.783Z,6.63
2022-11-11T08:16:46.373Z,6.18
2022-11-11T08:19:33.310Z,5.95
2022-11-11T08:22:19.964Z,6.70
2022-11-11T08:25:10.767Z,7.80
2022-11-11T08:28:01.129Z,8.57
2022-11-11T08:30:49.081Z,8.07
2022-11-11T08:33:37.335Z,8.43
2022-11-11T08:36:25.461Z,9.50
2022-11-11T08:39:12.960Z,8.60
2022-11-11T08:42:00.906Z,8.45
2022-11-11T08:44:47.995Z,8.13
2022-11-11T08:47:36.234Z,9.07
2022-11-11T08:50:22.961Z,9.40
2022-11-11T08:53:10.417Z,8.63
2022-11-11T08:55:56.921Z,4.75
2022-11-11T08:58:45.822Z,5.03
2022-11-11T09:01:32.222Z,5.15
2022-11-11T09:07:26.107Z,6.05
2022-11-11T09:10:15.783Z,5.47
2022-11-11T09:13:03.234Z,5.95
2022-11-11T09:15:53.909Z,5.65
2022-11-11T09:18:41.273Z,6.10
2022-11-11T09:21:27.726Z,4.90
2022-11-11T09:24:14.430Z,5.35
2022-11-11T09:27:01.007Z,4.93
2022-11-11T09:29:49.566Z,4.28
2022-11-11T09:32:37.691Z,4.90
2022-11-11T09:35:25.561Z,4.75
2022-11-11T09:38:12.287Z,6.57
2022-11-11T09:41:13.837Z,6.22
2022-11-11T09:44:02.113Z,5.22
2022-11-11T09:46:59.055Z,5.13
2022-11-11T09:49:59.455Z,6.13
2022-11-11T09:52:51.039Z,5.30
2022-11-11T09:55:41.737Z,5.68
2022-11-11T09:58:33.584Z,5.90
2022-11-11T10:01:24.410Z,4.65
2022-11-11T10:04:29.528Z,4.43
2022-11-11T10:07:35.275Z,5.50
2022-11-11T10:10:28.397Z,5.55
2022-11-11T10:13:17.373Z,5.93
2022-11-11T10:16:11.903Z,7.70
2022-11-11T10:19:13.594Z,6.07
2022-11-11T10:22:18.380Z,5.43
2022-11-11T10:25:22.162Z,5.03
2022-11-11T10:28:16.406Z,4.47
2022-11-11T10:31:05.725Z,4.63
2022-11-11T10:33:57.918Z,4.90
2022-11-11T10:36:47.406Z,4.38
2022-11-11T10:39:47.781Z,4.43
2022-11-11T10:42:38.293Z,4.75
2022-11-11T10:45:32.781Z,4.80
2022-11-11T10:48:25.778Z,4.88
2022-11-11T10:51:13.619Z,4.35
2022-11-11T10:54:06.985Z,4.63
2022-11-11T10:57:01.804Z,5.13
2022-11-11T10:59:55.224Z,4.77
2022-11-11T11:02:46.790Z,5.10
2022-11-11T11:05:38.500Z,5.10
2022-11-11T11:08:30.399Z,4.60
2022-11-11T11:11:22.650Z,4.55
2022-11-11T11:14:14.207Z,4.60
2022-11-11T11:17:10.679Z,6.18
2022-11-11T11:20:11.134Z,5.50
2022-11-11T11:23:01.713Z,5.18
2022-11-11T11:25:54.808Z,6.68
2022-11-11T11:28:56.229Z,6.97
2022-11-11T11:31:43.045Z,7.28
2022-11-11T11:34:46.363Z,4.85
2022-11-11T11:37:32.956Z,5.32
2022-11-11T11:40:19.789Z,4.10
2022-11-11T11:43:25.806Z,6.18
2022-11-11T11:46:25.562Z,4.30
2022-11-11T11:49:25.557Z,4.63
2022-11-11T11:52:22.352Z,4.90
2022-11-11T11:55:16.804Z,4.75
2022-11-11T11:58:29.258Z,4.70
2022-11-11T12:01:23.255Z,5.20
2022-11-11T12:04:54.703Z,5.20
2022-11-11T12:08:04.219Z,4.25
2022-11-11T12:10:57.397Z,4.40
2022-11-11T12:13:59.493Z,4.30
2022-11-11T12:16:54.355Z,4.55
2022-11-11T12:19:52.743Z,3.05
2022-11-11T12:22:58.529Z,3.78
2022-11-11T12:28:56.835Z,3.50
2022-11-11T12:32:04.008Z,3.60
2022-11-11T12:35:16.779Z,3.92
2022-11-11T12:38:20.079Z,3.42
2022-11-11T12:41:18.032Z,2.95
2022-11-11T12:44:08.092Z,3.30
2022-11-11T12:47:18.083Z,3.20
2022-11-11T12:50:18.249Z,3.65
2022-11-11T12:53:19.655Z,3.38
2022-11-11T12:56:15.332Z,3.22
2022-11-11T12:59:10.476Z,3.58
2022-11-11T13:02:03.575Z,3.80
2022-11-11T13:05:02.493Z,3.53
2022-11-11T13:08:09.914Z,3.03
2022-11-11T13:11:04.759Z,2.97
2022-11-11T13:14:05.108Z,2.80
2022-11-11T13:16:53.091Z,4.05
2022-11-11T13:19:45.974Z,4.47
2022-11-11T13:22:33.779Z,3.05
2022-11-11T13:25:23.915Z,5.75
2022-11-11T13:28:19.523Z,3.47
2022-11-11T13:31:23.682Z,46.03
2022-11-11T13:34:13.272Z,4.90
2022-11-11T13:37:00.158Z,4.20
2022-11-11T13:39:54.421Z,5.00
2022-11-11T13:42:51.318Z,4.07
2022-11-11T13:45:42.551Z,4.45
2022-11-11T13:48:31.925Z,4.55
2022-11-11T13:51:26.080Z,4.60
2022-11-11T13:54:25.759Z,5.05
2022-11-11T13:57:21.341Z,5.10
2022-11-11T14:00:25.589Z,5.47
2022-11-11T14:03:35.474Z,5.28
2022-11-11T14:06:55.313Z,5.70
2022-11-11T14:10:08.778Z,6.60
2022-11-11T14:12:56.628Z,6.50
2022-11-11T14:15:45.605Z,6.95
2022-11-11T14:18:39.758Z,7.13
2022-11-11T14:21:50.537Z,6.60
2022-11-11T14:24:40.396Z,7.38
2022-11-11T14:27:30.442Z,9.48
2022-11-11T14:30:39.605Z,10.60
2022-11-11T14:33:45.018Z,10.50
2022-11-11T14:36:40.331Z,9.73
2022-11-11T14:39:37.155Z,9.27
2022-11-11T14:42:48.960Z,9.73
2022-11-11T14:46:03.247Z,9.23
2022-11-11T14:49:02.724Z,8.75
2022-11-11T14:51:51.972Z,8.85
2022-11-11T14:55:00.639Z,9.90
2022-11-11T14:57:49.885Z,9.15
2022-11-11T15:00:47.250Z,9.90
2022-11-11T15:03:39.361Z,9.98
2022-11-11T15:06:33.651Z,10.82
2022-11-11T15:09:42.166Z,10.45
2022-11-11T15:12:44.579Z,10.85
2022-11-11T15:15:40.838Z,11.15
2022-11-11T15:18:48.584Z,11.63
2022-11-11T15:21:38.335Z,12.35
2022-11-11T15:24:35.540Z,15.85
2022-11-11T15:27:34.764Z,15.48
2022-11-11T15:30:25.662Z,15.88
2022-11-11T15:33:19.692Z,17.67
2022-11-11T15:36:15.620Z,15.82
2022-11-11T15:39:09.151Z,16.50
2022-11-11T15:41:55.749Z,17.17
2022-11-11T15:44:42.809Z,18.33
2022-11-11T15:47:34.390Z,18.48
2022-11-11T15:50:31.915Z,19.90
2022-11-11T15:53:24.910Z,19.80
2022-11-11T15:56:13.168Z,17.63
2022-11-11T15:59:17.534Z,17.38
2022-11-11T16:02:09.191Z,18.35
2022-11-11T16:04:58.680Z,22.13
2022-11-11T16:07:46.268Z,25.75
2022-11-11T16:10:35.881Z,23.80
2022-11-11T16:13:29.444Z,27.40
2022-11-11T16:16:21.069Z,23.17
2022-11-11T16:19:17.240Z,28.45
2022-11-11T16:22:08.050Z,27.17
2022-11-11T16:24:56.694Z,21.73
2022-11-11T16:27:43.083Z,26.33
2022-11-11T16:30:34.452Z,24.95
2022-11-11T16:33:33.451Z,25.92
2022-11-11T16:36:20.089Z,29.40
2022-11-11T16:39:16.774Z,29.83
2022-11-11T16:42:05.394Z,27.92
2022-11-11T16:44:57.133Z,27.90
2022-11-11T16:47:48.299Z,29.02
2022-11-11T16:50:35.254Z,31.55
2022-11-11T16:53:30.342Z,29.52
2022-11-11T16:56:22.344Z,42.88
2022-11-11T16:59:12.627Z,48.65
2022-11-11T17:01:59.400Z,48.08
2022-11-11T17:04:52.852Z,47.50
2022-11-11T17:07:41.809Z,52.25
2022-11-11T17:10:29.708Z,60.10
2022-11-11T17:13:16.097Z,58.67
2022-11-11T17:16:04.950Z,50.47
2022-11-11T17:18:51.674Z,51.65
2022-11-11T17:21:39.536Z,49.92
2022-11-11T17:24:25.799Z,44.67
2022-11-11T17:27:12.359Z,43.35
2022-11-11T17:29:59.384Z,48.28
2022-11-11T17:32:48.717Z,54.42
2022-11-11T17:35:35.094Z,52.00
2022-11-11T17:38:22.802Z,65.00
2022-11-11T17:41:09.674Z,54.67
2022-11-11T17:43:56.629Z,48.45
2022-11-11T17:46:43.502Z,44.47
2022-11-11T17:49:55.273Z,44.03
2022-11-11T17:52:40.445Z,41.95
2022-11-11T17:55:28.117Z,39.72
2022-11-11T17:58:14.466Z,53.35
2022-11-11T18:01:06.598Z,49.42
2022-11-11T18:03:56.717Z,66.40
2022-11-11T18:06:43.282Z,83.22
2022-11-11T18:09:29.879Z,83.50
2022-11-11T18:12:17.965Z,101.20
2022-11-11T18:15:05.614Z,91.20
2022-11-11T18:17:51.939Z,99.38
2022-11-11T18:20:38.903Z,81.35
2022-11-11T18:23:25.896Z,62.70
2022-11-11T18:26:12.766Z,50.38
2022-11-11T18:29:00.805Z,55.58
2022-11-11T18:31:49.805Z,49.15
2022-11-11T18:34:40.266Z,54.35
2022-11-11T18:37:26.924Z,40.97
2022-11-11T18:40:14.542Z,33.55
2022-11-11T18:43:01.266Z,44.47
2022-11-11T18:45:50.909Z,36.13
2022-11-11T18:48:38.503Z,32.33
2022-11-11T18:51:25.119Z,35.28
2022-11-11T18:54:11.759Z,35.58
2022-11-11T18:56:58.723Z,37.75
2022-11-11T18:59:46.079Z,42.53
2022-11-11T19:02:33.913Z,37.63
2022-11-11T19:05:20.395Z,46.75
2022-11-11T19:08:07.042Z,58.03
2022-11-11T19:10:53.597Z,64.93
2022-11-11T19:13:40.517Z,78.40
2022-11-11T19:16:27.299Z,113.53
2022-11-11T19:19:16.334Z,107.10
2022-11-11T19:22:03.191Z,79.28
2022-11-11T19:24:49.710Z,71.55
2022-11-11T19:27:36.280Z,77.22
2022-11-11T19:30:23.285Z,87.20
2022-11-11T19:33:10.144Z,81.93
2022-11-11T19:35:59.302Z,86.22
2022-11-11T19:38:47.667Z,75.57
2022-11-11T19:41:36.640Z,62.42
2022-11-11T19:44:23.690Z,84.82
2022-11-11T19:47:10.409Z,81.85
2022-11-11T19:49:57.285Z,78.03
2022-11-11T19:52:45.380Z,95.25
2022-11-11T19:55:32.136Z,75.22
2022-11-11T19:58:18.595Z,78.45
2022-11-11T20:01:09.526Z,102.20
2022-11-11T20:03:57.219Z,97.45
2022-11-11T20:06:43.991Z,93.60
2022-11-11T20:09:36.246Z,88.47
2022-11-11T20:12:22.943Z,95.25
2022-11-11T20:15:10.488Z,94.82
2022-11-11T20:17:56.884Z,88.15
2022-11-11T20:20:43.594Z,77.43
2022-11-11T20:23:30.839Z,62.83
2022-11-11T20:26:19.629Z,57.00
2022-11-11T20:29:06.336Z,58.58
2022-11-11T20:31:52.966Z,50.95
2022-11-11T20:34:39.562Z,53.83
2022-11-11T20:37:27.038Z,58.72
2022-11-11T20:40:13.606Z,53.72
2022-11-11T20:43:02.075Z,58.78
2022-11-11T20:45:48.675Z,53.53
2022-11-11T20:48:35.466Z,63.35
2022-11-11T20:51:23.768Z,84.35
2022-11-11T20:54:10.542Z,82.55
2022-11-11T20:56:56.916Z,71.70
2022-11-11T20:59:44.929Z,66.32
2022-11-11T21:02:32.527Z,61.28
2022-11-11T21:05:19.989Z,61.75
2022-11-11T21:08:06.408Z,57.38
2022-11-11T21:10:56.359Z,62.58
2022-11-11T21:13:45.659Z,60.92
2022-11-11T21:16:33.764Z,67.32
2022-11-11T21:19:20.358Z,59.05
2022-11-11T21:22:10.116Z,48.72
2022-11-11T21:24:56.995Z,49.30
2022-11-11T21:27:43.438Z,50.75
2022-11-11T21:30:29.849Z,47.17
2022-11-11T21:33:17.567Z,70.07
2022-11-11T21:36:07.123Z,51.50
2022-11-11T21:38:54.112Z,53.88
2022-11-11T21:41:41.795Z,46.38
2022-11-11T21:44:28.235Z,40.72
2022-11-11T21:47:17.358Z,47.40
2022-11-11T21:50:05.999Z,44.97
2022-11-11T21:52:52.439Z,47.75
2022-11-11T21:55:38.854Z,46.72
2022-11-11T21:58:25.349Z,47.15
2022-11-11T22:01:14.582Z,42.70
2022-11-11T22:04:03.171Z,39.42
2022-11-11T22:06:51.788Z,35.90
2022-11-11T22:09:38.564Z,41.08
2022-11-11T22:12:25.163Z,39.30
2022-11-11T22:15:12.692Z,39.28
2022-11-11T22:17:59.916Z,33.05
2022-11-11T22:20:46.606Z,35.42
2022-11-11T22:23:34.979Z,33.28
2022-11-11T22:26:51.127Z,31.27
2022-11-11T22:29:38.084Z,34.40
2022-11-11T22:32:25.454Z,31.92
2022-11-11T22:35:11.892Z,31.88
2022-11-11T22:37:58.938Z,46.10
2022-11-11T22:40:45.388Z,52.85
2022-11-11T22:43:58.480Z,44.67
2022-11-11T22:46:44.336Z,55.80
2022-11-11T22:49:31.234Z,58.33
2022-11-11T22:52:18.059Z,54.20
2022-11-11T22:55:04.968Z,57.17
2022-11-11T22:57:51.754Z,55.92
2022-11-11T23:00:40.826Z,58.03
2022-11-11T23:03:27.748Z,51.92
2022-11-11T23:06:17.093Z,58.22
2022-11-11T23:09:18.577Z,59.10
2022-11-11T23:12:05.783Z,53.20
2022-11-11T23:14:52.344Z,50.70
2022-11-11T23:17:40.590Z,49.63
2022-11-11T23:20:27.258Z,49.25
2022-11-11T23:23:13.482Z,41.10
2022-11-11T23:26:03.166Z,44.85
2022-11-11T23:28:50.120Z,46.83
2022-11-11T23:31:36.870Z,35.47
2022-11-11T23:34:24.955Z,38.78
2022-11-11T23:37:11.898Z,45.97
2022-11-11T23:39:58.822Z,35.28
2022-11-11T23:42:45.436Z,28.27
2022-11-11T23:45:32.847Z,36.47
2022-11-11T23:48:19.949Z,37.45
2022-11-11T23:51:08.057Z,43.10
2022-11-11T23:53:54.954Z,39.33
2022-11-11T23:56:41.803Z,47.92
2022-11-11T23:59:28.752Z,40.35
